CYYRBGBW

Guest
Details From CYYR - Goose Bay
To BGBW - Narsarsuaq
Flight Number -
Tags generated
Created
Modified
Stats Distance 791 nm / 1,466 km
Max Altitude 35,000 ft / 10,668 m
Waypoints 6
Social Downloads 0
Likes 0
Share VATSIM

Download

Looking for another format? Having issues loading an existing format? Contact us
Advertisement - Login to hide

Notes

Basic altitude profile: - Ascent Rate: 1200ft/min - Ascent Speed: 150kts - Cruise Altitude: 24000ft - Cruise Speed: 220kts - Descent Rate: 1500ft/min - Descent Speed: 220kts Options: - Use NATs: no - Use PACOTS: yes - Use low airways: no - Use high airways: yes

Route

CYYR YR 5E20 OZN BGBW

ID Type Via Altitude Latitude Longitude Leg Dist Tot Dist Heading (true) Name
O CYYR APT - 0 ft / 0 m 53.31882˚ -60.42389˚ - 0 nm - Goose Bay
YR NDB - 800 ft / 244 m 53.33833˚ -60.36667˚ 2 nm 2 nm 60° / 60° GOOSE NDB
LOACH FIX 5E20 (AWY-HI) 35,000 ft / 10,668 m 55.51667˚ -57.01667˚ 175 nm 177 nm 40° / 43° -
5850N FIX 5E20 (AWY-HI) 35,000 ft / 10,668 m 58.00000˚ -50.00000˚ 274 nm 452 nm 54° / 60° -
OZN NDB 5E20 (AWY-HI) 27,000 ft / 8,230 m 60.05722˚ -43.15972˚ 244 nm 697 nm 57° / 63° PRINS CHRISTIAN SUND NDB
O BGBW APT - 0 ft / 0 m 61.16052˚ -45.42598˚ 94 nm 791 nm 316° / 314° Narsarsuaq

Altitude Profile

Advertisement - Login to hide

Weather


0- 5 10 15 20 25 30 35+ Temperature / ° C

Clouds and Precipitation
Forecast for 2017-12-18 00:00 UTC. Updated an hour ago

Ground ~20,000 ft ~40,000 ft Winds

CYYR

Details ICAO CYYR (YYR)
Name Goose Bay
Region Canada
Timezone America/Goose_Bay (UTC-4.0)
Stats Elevation 160 ft / 49 m (AMSL)
Location 53.318820° -60.423890°
Runways 2
Magnetic Variation 20.961° W

METAR

CYYR 172200Z 29005KT 15SM FEW080 BKN160 M12/M19 A2965 RMK AC1AC6 SLP045

Decode

TAF

TAF CYYR 171731Z 1718/1818 30015G25KT P6SM BKN030 OVC080 TEMPO 1718/1803 FEW030 BKN080 BECMG 1723/1801 27012KT SCT080 FM180300 27012KT P6SM SKC RMK NXT FCST BY 180000Z

Decode

Departure Runways

ID Width Length Bearing (true) Bearing (mag) Surface Threshold Offset Overrun Length
08 209 ft / 64 m 11,055 ft / 3,369 m 54.70° 75.66° Asphalt 0 ft / 0 m 1,000 ft / 305 m
16 200 ft / 61 m 9,515 ft / 2,900 m 132.96° 153.92° Asphalt 0 ft / 0 m 0 ft / 0 m
26 209 ft / 64 m 11,055 ft / 3,369 m 234.73° 255.69° Asphalt 0 ft / 0 m 1,000 ft / 305 m
34 200 ft / 61 m 9,515 ft / 2,900 m 312.99° 333.95° Asphalt 0 ft / 0 m 500 ft / 152 m

BGBW

Details ICAO BGBW (UAK)
Name Narsarsuaq
Region Greenland
Timezone America/Godthab (UTC-3.0)
Stats Elevation 112 ft / 34 m (AMSL)
Location 61.160516° -45.425976°
Runways 1
Magnetic Variation 22.903° W

METAR

BGBW 172150Z AUTO 06023KT 9999NDV SCT060/// OVC075/// 03/M12 Q0966

Decode

TAF

Not found

Destination Runways

ID Width Length Bearing (true) Bearing (mag) Surface Threshold Offset Overrun Length
07 148 ft / 45 m 5,921 ft / 1,805 m 40.57° 63.47° Concrete 0 ft / 0 m 0 ft / 0 m
25 148 ft / 45 m 5,921 ft / 1,805 m 220.58° 243.48° Concrete 0 ft / 0 m 279 ft / 85 m

Popular Alternatives